Time;durP1;ratioP1;P1;durP2;ratioP2;P2;SDS_P1;SDS_P2;PMS_P1;PMS_P2;Temp;Humidity;BMP_temperature;BMP_pressure;BME280_temperature;BME280_humidity;BME280_pressure;Samples;Min_cycle;Max_cycle;Signal;HPM_P1;HPM_P2
2022/07/06 00:02:08;;;;;;;2.70;2.50;;;;;;;17.41;100.00;96782.72;5010633;28;103909;-64
2022/07/06 00:04:35;;;;;;;2.90;2.60;;;;;;;17.48;100.00;96778.63;5008808;28;105852;-64
2022/07/06 00:07:03;;;;;;;3.00;2.60;;;;;;;17.52;100.00;96779.66;5014369;28;101787;-64
2022/07/06 00:09:30;;;;;;;2.73;2.20;;;;;;;17.58;100.00;96778.53;5010296;28;102657;-64
2022/07/06 00:11:59;;;;;;;4.13;2.97;;;;;;;17.66;100.00;96771.72;5010493;28;102150;-64
2022/07/06 00:14:26;;;;;;;2.57;2.20;;;;;;;17.69;100.00;96774.66;5009379;28;103976;-64
2022/07/06 00:16:53;;;;;;;3.43;2.37;;;;;;;17.73;100.00;96777.56;5010154;28;102733;-64
2022/07/06 00:19:20;;;;;;;2.50;2.30;;;;;;;17.72;100.00;96775.97;5010886;28;101738;-64
2022/07/06 00:21:47;;;;;;;2.80;2.50;;;;;;;17.70;100.00;96773.56;5010550;28;102749;-64
2022/07/06 00:24:16;;;;;;;2.77;2.00;;;;;;;17.70;100.00;96780.81;5008624;28;104318;-64
2022/07/06 00:26:43;;;;;;;3.37;2.20;;;;;;;17.67;100.00;96784.09;5010558;28;101846;-64
2022/07/06 00:29:12;;;;;;;2.17;2.03;;;;;;;17.64;100.00;96774.69;5011583;28;105067;-64
2022/07/06 00:31:41;;;;;;;1.80;1.70;;;;;;;17.66;100.00;96772.50;5009149;28;101865;-64
2022/07/06 00:34:08;;;;;;;1.93;1.83;;;;;;;17.73;100.00;96772.19;5008939;28;105325;-64
2022/07/06 00:36:35;;;;;;;2.10;1.90;;;;;;;17.76;100.00;96774.31;5008348;28;105803;-64
2022/07/06 00:39:04;;;;;;;3.33;1.90;;;;;;;17.75;100.00;96776.19;5010428;28;101865;-64
2022/07/06 00:41:32;;;;;;;2.20;2.00;;;;;;;17.78;100.00;96774.81;5009019;28;105738;-64
2022/07/06 00:43:59;;;;;;;4.30;2.17;;;;;;;17.72;100.00;96775.97;5008413;28;103755;-64
2022/07/06 00:46:31;;;;;;;5.00;2.00;;;;;;;17.72;100.00;96770.59;5008438;28;101999;-64
2022/07/06 00:48:58;;;;;;;2.23;1.90;;;;;;;17.71;100.00;96769.00;5011575;28;105556;-63
2022/07/06 00:51:31;;;;;;;2.10;1.70;;;;;;;17.68;100.00;96769.53;5010319;28;101761;-64
2022/07/06 00:54:02;;;;;;;1.83;1.70;;;;;;;17.67;100.00;96776.84;5008756;28;105289;-64
2022/07/06 00:56:32;;;;;;;1.83;1.73;;;;;;;17.72;100.00;96770.59;5008145;28;104897;-63
2022/07/06 00:59:00;;;;;;;1.63;1.53;;;;;;;17.69;100.00;96763.88;5008526;28;101931;-64
2022/07/06 01:01:28;;;;;;;2.77;1.70;;;;;;;17.71;100.00;96764.38;5010118;28;102349;-64
2022/07/06 01:03:55;;;;;;;1.90;1.80;;;;;;;17.74;100.00;96763.03;5010421;28;105633;-64
2022/07/06 01:06:23;;;;;;;1.43;1.43;;;;;;;17.69;100.00;96755.00;5012119;28;101982;-64
2022/07/06 01:08:50;;;;;;;1.57;1.53;;;;;;;17.69;100.00;96755.81;5012219;28;105148;-64
2022/07/06 01:11:20;;;;;;;2.33;2.13;;;;;;;17.70;100.00;96753.91;5014701;28;105061;-64
2022/07/06 01:13:48;;;;;;;3.43;1.80;;;;;;;17.62;100.00;96746.47;5013480;28;102280;-64
2022/07/06 01:16:16;;;;;;;2.10;1.80;;;;;;;17.65;100.00;96749.41;5012942;28;102549;-63
2022/07/06 01:18:45;;;;;;;2.37;1.70;;;;;;;17.62;100.00;96746.47;5012301;28;102381;-64
2022/07/06 01:21:15;;;;;;;1.87;1.77;;;;;;;17.49;100.00;96739.09;5011927;28;105921;-64
2022/07/06 01:23:44;;;;;;;2.07;1.90;;;;;;;17.44;100.00;96741.84;5012264;28;102594;-64
2022/07/06 01:26:14;;;;;;;2.27;2.07;;;;;;;17.40;100.00;96744.31;5011788;28;101966;-64
2022/07/06 01:28:42;;;;;;;3.00;2.40;;;;;;;17.38;100.00;96746.47;5013138;28;102954;-64
2022/07/06 01:31:16;;;;;;;3.03;2.30;;;;;;;17.39;100.00;96734.63;5011034;28;105413;-63
2022/07/06 01:33:44;;;;;;;2.33;2.23;;;;;;;17.42;100.00;96728.69;5015190;28;102107;-64
2022/07/06 01:36:12;;;;;;;4.83;2.70;;;;;;;17.39;100.00;96729.22;5011110;28;105548;-64
2022/07/06 01:38:57;;;;;;;3.63;2.50;;;;;;;17.36;100.00;96732.47;5011761;28;101927;-64
2022/07/06 01:41:26;;;;;;;2.30;2.20;;;;;;;17.33;100.00;96730.34;5012954;28;102408;-64
2022/07/06 01:43:53;;;;;;;5.67;2.60;;;;;;;17.30;100.00;96738.19;5012395;28;102714;-64
2022/07/06 01:46:20;;;;;;;3.97;2.70;;;;;;;17.20;100.00;96738.28;5011618;28;101942;-63
2022/07/06 01:48:48;;;;;;;2.77;2.53;;;;;;;17.20;100.00;96741.78;4994668;28;105303;-64
2022/07/06 01:51:16;;;;;;;2.70;2.47;;;;;;;17.12;100.00;96750.44;5011018;28;104255;-64
2022/07/06 01:53:45;;;;;;;2.97;2.43;;;;;;;17.01;100.00;96753.50;5011562;28;101886;-64
2022/07/06 01:56:14;;;;;;;4.47;2.60;;;;;;;17.05;100.00;96755.34;5015575;28;102262;-64
2022/07/06 01:58:43;;;;;;;3.23;2.53;;;;;;;16.94;100.00;96745.75;5011529;28;101820;-64
2022/07/06 02:01:11;;;;;;;5.50;2.73;;;;;;;17.03;100.00;96743.28;5011474;28;104975;-64
2022/07/06 02:03:39;;;;;;;4.30;2.50;;;;;;;17.02;100.00;96736.28;5010657;28;106064;-64
2022/07/06 02:06:07;;;;;;;3.23;2.70;;;;;;;17.03;100.00;96732.53;5012867;28;101982;-64
2022/07/06 02:08:35;;;;;;;2.87;2.60;;;;;;;17.07;100.00;96736.25;5011396;28;105054;-64
2022/07/06 02:11:02;;;;;;;3.67;2.97;;;;;;;17.02;100.00;96738.97;5011925;28;102580;-64
2022/07/06 02:13:32;;;;;;;2.63;2.43;;;;;;;17.09;100.00;96734.06;5011040;28;101990;-64
2022/07/06 02:16:01;;;;;;;4.30;2.43;;;;;;;17.09;100.00;96734.88;5010682;28;105174;-64
2022/07/06 02:18:29;;;;;;;3.60;2.33;;;;;;;17.06;100.00;96740.03;5013942;28;105187;-64
2022/07/06 02:20:57;;;;;;;4.60;2.67;;;;;;;17.00;100.00;96752.69;5011133;28;105273;-64
2022/07/06 02:23:25;;;;;;;4.03;2.67;;;;;;;17.02;100.00;96755.09;5010276;28;105752;-64
2022/07/06 02:25:53;;;;;;;2.53;2.33;;;;;;;16.97;100.00;96755.16;5011165;28;101754;-64
2022/07/06 02:28:21;;;;;;;2.87;2.63;;;;;;;17.00;100.00;96751.91;5010965;28;105272;-64
2022/07/06 02:30:50;;;;;;;2.50;2.40;;;;;;;17.01;100.00;96759.66;5010130;28;106047;-64
2022/07/06 02:33:18;;;;;;;2.50;2.40;;;;;;;17.04;100.00;96755.63;5011008;28;101912;-63
2022/07/06 02:35:46;;;;;;;2.53;2.33;;;;;;;17.06;100.00;96756.94;5010894;28;105494;-63
2022/07/06 02:38:14;;;;;;;2.70;2.50;;;;;;;16.82;100.00;96766.00;5010297;28;105561;-64
2022/07/06 02:40:41;;;;;;;4.97;2.87;;;;;;;16.94;100.00;96759.19;5014289;28;102206;-64
2022/07/06 02:43:09;;;;;;;3.50;2.80;;;;;;;16.98;100.00;96762.13;5011413;28;102048;-64
2022/07/06 02:45:37;;;;;;;3.10;2.60;;;;;;;17.07;100.00;96758.53;5010866;28;101914;-64
2022/07/06 02:48:07;;;;;;;5.03;3.10;;;;;;;17.03;100.00;96754.00;5010124;28;105163;-64
2022/07/06 02:50:35;;;;;;;3.43;2.83;;;;;;;17.00;100.00;96752.69;5009718;28;105107;-64
2022/07/06 02:53:02;;;;;;;3.77;2.60;;;;;;;16.99;100.00;96755.66;5012044;28;101760;-64
2022/07/06 02:55:31;;;;;;;2.90;2.70;;;;;;;16.93;100.00;96752.22;5010563;28;105914;-64
2022/07/06 02:57:58;;;;;;;2.83;2.33;;;;;;;16.95;100.00;96758.09;5011306;28;102585;-64
2022/07/06 03:00:26;;;;;;;2.90;2.70;;;;;;;16.96;100.00;96764.28;5013786;28;102100;-64
2022/07/06 03:02:54;;;;;;;2.40;2.20;;;;;;;16.91;100.00;96758.97;5010068;28;104327;-64
2022/07/06 03:05:23;;;;;;;2.93;2.70;;;;;;;16.92;100.00;96760.56;5010407;28;101990;-64
2022/07/06 03:07:50;;;;;;;2.87;2.67;;;;;;;16.96;100.00;96762.38;5010473;28;106013;-64
2022/07/06 03:10:18;;;;;;;2.70;2.50;;;;;;;16.91;100.00;96765.16;5011157;28;102047;-64
2022/07/06 03:12:45;;;;;;;4.10;3.00;;;;;;;16.83;100.00;96772.97;5010236;28;101774;-64
2022/07/06 03:15:13;;;;;;;4.13;2.70;;;;;;;16.86;100.00;96772.44;5009952;28;105138;-64
2022/07/06 03:17:43;;;;;;;3.03;2.73;;;;;;;16.83;100.00;96783.72;5009692;28;105552;-64
2022/07/06 03:20:13;;;;;;;2.80;2.57;;;;;;;16.54;100.00;96788.22;5010236;28;101903;-63
2022/07/06 03:22:43;;;;;;;3.43;2.80;;;;;;;16.53;100.00;96778.56;5013113;28;105259;-64
2022/07/06 03:25:12;;;;;;;4.27;3.40;;;;;;;16.62;100.00;96787.66;5009794;28;101863;-64
2022/07/06 03:27:41;;;;;;;2.90;2.70;;;;;;;16.63;100.00;96784.66;5009013;28;104406;-64
2022/07/06 03:30:10;;;;;;;5.50;3.10;;;;;;;16.71;100.00;96775.22;5009488;28;105472;-64
2022/07/06 03:32:37;;;;;;;3.57;3.27;;;;;;;16.62;100.00;96787.66;5009727;28;102095;-64
2022/07/06 03:35:07;;;;;;;4.03;2.73;;;;;;;16.67;100.00;96774.97;5009716;28;103740;-64
2022/07/06 03:37:34;;;;;;;3.30;3.00;;;;;;;16.71;100.00;96783.28;5009338;28;105474;-64
2022/07/06 03:40:03;;;;;;;3.40;3.10;;;;;;;16.78;100.00;96775.72;5009888;28;101950;-64
2022/07/06 03:42:30;;;;;;;4.30;2.80;;;;;;;16.79;100.00;96785.38;5009880;28;104796;-64
2022/07/06 03:44:57;;;;;;;3.47;3.17;;;;;;;16.74;100.00;96780.03;5012373;28;105836;-64
2022/07/06 03:47:24;;;;;;;4.20;2.70;;;;;;;16.80;100.00;96770.88;5009130;28;105719;-64
2022/07/06 03:49:51;;;;;;;3.17;2.97;;;;;;;16.82;100.00;96772.19;5009117;28;105398;-63
2022/07/06 03:52:19;;;;;;;2.80;2.60;;;;;;;16.83;100.00;96781.84;5009589;28;102197;-63
2022/07/06 03:54:51;;;;;;;6.80;3.30;;;;;;;16.82;100.00;96777.56;5009597;28;105257;-64
2022/07/06 03:57:26;;;;;;;3.70;3.30;;;;;;;16.86;100.00;96777.81;5008907;28;105674;-63
2022/07/06 03:59:54;;;;;;;3.13;2.93;;;;;;;16.84;100.00;96778.06;5009470;28;102016;-63
2022/07/06 04:02:23;;;;;;;3.43;3.10;;;;;;;16.91;100.00;96770.53;5009587;28;104990;-63
2022/07/06 04:04:52;;;;;;;3.23;2.60;;;;;;;16.97;100.00;96765.91;5009028;28;105248;-64
2022/07/06 04:07:19;;;;;;;5.30;3.00;;;;;;;17.04;100.00;96774.44;5012873;28;101886;-64
2022/07/06 04:09:47;;;;;;;2.50;2.40;;;;;;;17.08;100.00;96775.47;5010223;28;102739;-64
2022/07/06 04:12:15;;;;;;;3.67;2.53;;;;;;;17.13;100.00;96783.50;5009093;28;102030;-63
2022/07/06 04:18:07;;;;;;;2.90;2.70;;;;;;;17.23;100.00;96783.41;5009030;28;105326;-64
2022/07/06 04:20:50;;;;;;;3.10;2.73;;;;;;;17.26;100.00;96783.66;5009533;28;101823;-63
2022/07/06 04:23:18;;;;;;;2.83;2.63;;;;;;;17.29;100.00;96790.34;5009504;28;103381;-63
2022/07/06 04:25:50;;;;;;;3.40;2.70;;;;;;;17.45;100.00;96789.16;5008864;28;105335;-63
2022/07/06 04:28:17;;;;;;;3.90;2.70;;;;;;;17.54;100.00;96784.78;5009688;28;101857;-64
2022/07/06 04:30:44;;;;;;;3.23;2.77;;;;;;;17.54;100.00;96782.09;5012198;28;104104;-64
2022/07/06 04:33:17;;;;;;;3.00;2.80;;;;;;;17.56;100.00;96782.59;5009519;28;102050;-64
2022/07/06 04:35:57;;;;;;;3.10;2.80;;;;;;;17.55;100.00;96783.69;5009510;28;105224;-64
2022/07/06 04:38:29;;;;;;;3.43;3.13;;;;;;;17.49;100.00;96785.59;5008367;28;104708;-63
2022/07/06 04:41:01;;;;;;;3.37;2.80;;;;;;;17.49;100.00;96787.50;5009383;28;101789;-64
2022/07/06 04:43:28;;;;;;;2.70;2.60;;;;;;;17.41;100.00;96790.78;5010697;28;102361;-64
2022/07/06 04:46:19;;;;;;;3.20;2.90;;;;;;;17.46;100.00;96788.06;5008528;28;105480;-64
2022/07/06 04:48:52;;;;;;;2.97;2.77;;;;;;;17.59;100.00;96792.75;5008961;28;101986;-66
2022/07/06 04:51:24;;;;;;;2.93;2.73;;;;;;;17.68;100.00;96783.00;5009048;28;105614;-63
2022/07/06 04:53:52;;;;;;;2.80;2.60;;;;;;;17.63;100.00;96791.13;5011628;28;102279;-63
2022/07/06 04:56:35;;;;;;;3.60;2.80;;;;;;;17.54;100.00;96790.16;5009083;28;105726;-63
2022/07/06 04:59:02;;;;;;;4.23;2.40;;;;;;;17.58;100.00;96796.53;5008507;28;105635;-62
2022/07/06 05:01:30;;;;;;;4.20;2.73;;;;;;;17.54;100.00;96785.56;5009096;28;101868;-63
2022/07/06 05:03:59;;;;;;;3.17;2.70;;;;;;;17.63;100.00;96794.63;5009059;28;104767;-63
2022/07/06 05:07:03;;;;;;;2.77;2.57;;;;;;;17.75;100.00;96789.63;5008281;28;105039;-64
2022/07/06 05:09:31;;;;;;;2.93;2.63;;;;;;;17.83;100.00;96799.75;5008831;28;101820;-64
2022/07/06 05:11:58;;;;;;;4.87;2.77;;;;;;;17.88;100.00;96799.72;5008432;28;105641;-64
2022/07/06 05:14:25;;;;;;;3.47;2.67;;;;;;;17.95;100.00;96797.50;5011519;28;105126;-64
2022/07/06 05:16:58;;;;;;;6.57;2.80;;;;;;;17.93;100.00;96788.88;5008349;28;105271;-64
2022/07/06 05:19:29;;;;;;;4.17;2.60;;;;;;;17.95;100.00;96797.50;5008056;28;105953;-64
2022/07/06 05:21:57;;;;;;;4.23;2.50;;;;;;;17.99;100.00;96792.34;5008438;28;101986;-65
2022/07/06 05:24:25;;;;;;;4.13;2.90;;;;;;;17.94;100.00;96797.78;5008052;28;105297;-65
2022/07/06 05:26:52;;;;;;;2.60;2.40;;;;;;;18.06;100.00;96796.28;5007941;28;105706;-65
2022/07/06 05:29:19;;;;;;;3.77;2.40;;;;;;;18.20;100.00;96799.09;5008842;28;101808;-65
2022/07/06 05:31:47;;;;;;;4.87;2.70;;;;;;;18.11;100.00;96796.22;5008407;28;105009;-65
2022/07/06 05:34:14;;;;;;;4.60;2.70;;;;;;;17.93;100.00;96798.88;5007797;28;105749;-65
2022/07/06 05:36:43;;;;;;;4.10;2.73;;;;;;;17.91;100.00;96795.66;5011664;28;102002;-65
2022/07/06 05:39:11;;;;;;;3.47;2.60;;;;;;;18.02;100.00;96797.94;5007957;28;105638;-65
2022/07/06 05:41:38;;;;;;;4.27;2.47;;;;;;;18.04;100.00;96803.84;5008500;28;102045;-65
2022/07/06 05:44:06;;;;;;;3.53;2.30;;;;;;;18.00;100.00;96807.41;5009361;28;102267;-65
2022/07/06 05:46:34;;;;;;;3.17;2.50;;;;;;;18.00;100.00;96807.41;5007061;28;105965;-65
2022/07/06 05:51:49;;;;;;;2.60;2.40;;;;;;;18.39;100.00;96810.72;5011752;28;105570;-65
2022/07/06 05:54:17;;;;;;;2.50;2.30;;;;;;;18.38;100.00;96812.63;5011161;28;105240;-65
2022/07/06 05:56:45;;;;;;;2.73;2.47;;;;;;;18.76;100.00;96818.81;5012221;28;101777;-65
2022/07/06 05:59:13;;;;;;;4.13;2.50;;;;;;;18.57;100.00;96816.13;5014221;28;105322;-65
2022/07/06 06:01:41;;;;;;;2.60;2.40;;;;;;;18.46;100.00;96809.25;5013379;28;101938;-65
2022/07/06 06:04:13;;;;;;;2.70;2.13;;;;;;;18.37;100.00;96820.97;5012657;28;104880;-65
2022/07/06 06:06:40;;;;;;;2.27;2.17;;;;;;;18.44;100.00;96813.34;5010705;28;105845;-65
2022/07/06 06:09:09;;;;;;;2.40;2.20;;;;;;;18.86;100.00;96813.28;5011769;28;102029;-65
2022/07/06 06:11:37;;;;;;;2.20;1.90;;;;;;;18.72;100.00;96812.41;5011388;28;105551;-65
2022/07/06 06:14:05;;;;;;;3.73;2.53;;;;;;;18.52;100.00;96818.88;5011451;28;105555;-65
2022/07/06 06:16:33;;;;;;;2.80;2.10;;;;;;;18.60;100.00;96822.81;5011948;28;102127;-65
2022/07/06 06:19:00;;;;;;;2.57;2.33;;;;;;;18.66;100.00;96818.97;5011967;28;105161;-65
2022/07/06 06:21:28;;;;;;;2.33;2.00;;;;;;;18.72;100.00;96823.19;5016124;28;103004;-65
2022/07/06 06:23:55;;;;;;;3.93;2.30;;;;;;;18.96;100.00;96822.00;5012951;28;102875;-65
2022/07/06 06:26:23;;;;;;;2.90;2.10;;;;;;;19.24;100.00;96825.66;5010414;28;105893;-65
2022/07/06 06:28:50;;;;;;;3.00;1.97;;;;;;;19.41;100.00;96821.31;5011669;28;102021;-65
2022/07/06 06:31:17;;;;;;;2.50;1.93;;;;;;;19.60;100.00;96829.34;5010895;28;105453;-65
2022/07/06 06:33:44;;;;;;;2.50;2.30;;;;;;;19.68;100.00;96815.19;5010533;28;105493;-65
2022/07/06 06:36:12;;;;;;;3.30;1.90;;;;;;;19.93;100.00;96823.63;5012160;28;102204;-65
2022/07/06 06:38:39;;;;;;;3.00;1.80;;;;;;;20.35;100.00;96822.56;5011064;28;105108;-65
2022/07/06 06:41:07;;;;;;;2.13;1.87;;;;;;;20.09;100.00;96822.28;5011427;28;102721;-65
2022/07/06 06:43:36;;;;;;;1.60;1.50;;;;;;;20.50;100.00;96820.34;5015686;28;101913;-65
2022/07/06 06:46:09;;;;;;;1.80;1.70;;;;;;;20.50;100.00;96816.84;5009955;28;104190;-65
2022/07/06 06:48:36;;;;;;;2.10;1.77;;;;;;;20.42;100.00;96822.94;5012102;28;101709;-65
2022/07/06 06:51:05;;;;;;;2.50;1.60;;;;;;;20.55;100.00;96819.44;5010632;28;103968;-65
2022/07/06 06:53:32;;;;;;;1.60;1.50;;;;;;;20.47;100.00;96812.03;5009949;28;105552;-65
2022/07/06 06:55:59;;;;;;;1.63;1.53;;;;;;;20.90;100.00;96819.50;5010576;28;102358;-65
2022/07/06 06:58:26;;;;;;;4.70;1.60;;;;;;;21.12;100.00;96818.72;5010329;28;105857;-65
2022/07/06 07:00:55;;;;;;;1.73;1.43;;;;;;;21.07;100.00;96819.63;5009753;28;105332;-65
2022/07/06 07:03:22;;;;;;;1.80;1.60;;;;;;;21.51;100.00;96816.13;5013815;28;101991;-65
2022/07/06 07:05:49;;;;;;;5.97;1.70;;;;;;;21.74;100.00;96820.44;5011392;28;102641;-65
2022/07/06 07:08:16;;;;;;;1.50;1.40;;;;;;;21.81;100.00;96818.09;5010338;28;101903;-65
2022/07/06 07:10:43;;;;;;;1.53;1.43;;;;;;;22.18;100.00;96812.19;5012432;28;102438;-65
2022/07/06 07:13:12;;;;;;;1.10;1.10;;;;;;;21.78;100.00;96810.56;5011345;28;101918;-65
2022/07/06 07:15:39;;;;;;;3.13;1.40;;;;;;;21.76;100.00;96813.63;5012208;28;102272;-65
2022/07/06 07:18:08;;;;;;;2.30;1.37;;;;;;;22.22;100.00;96805.03;5010546;28;105477;-65
2022/07/06 07:20:35;;;;;;;1.90;1.30;;;;;;;22.38;100.00;96808.91;5011495;28;102593;-65
2022/07/06 07:23:02;;;;;;;1.50;1.40;;;;;;;22.68;100.00;96799.91;5010217;28;101815;-65
2022/07/06 07:25:30;;;;;;;2.20;1.47;;;;;;;22.93;100.00;96812.69;5014630;28;102487;-65
2022/07/06 07:27:57;;;;;;;1.57;1.30;;;;;;;22.60;100.00;96806.91;5010609;28;102444;-64
2022/07/06 07:30:25;;;;;;;2.03;1.23;;;;;;;22.59;100.00;96804.53;5011928;28;102284;-64
2022/07/06 07:32:52;;;;;;;1.50;1.30;;;;;;;22.91;100.00;96802.19;5009665;28;105774;-64
2022/07/06 07:35:21;;;;;;;3.07;1.40;;;;;;;22.97;100.00;96803.63;5010022;28;101993;-64
2022/07/06 07:37:48;;;;;;;1.80;1.27;;;;;;;23.09;100.00;96806.50;5011391;28;102338;-64
2022/07/06 07:40:15;;;;;;;1.00;0.90;;;;;;;23.22;100.00;96807.47;5009259;28;105955;-64
2022/07/06 07:42:43;;;;;;;1.20;1.10;;;;;;;23.53;100.00;96808.88;5011154;28;102060;-64
2022/07/06 07:45:11;;;;;;;2.20;1.23;;;;;;;23.17;100.00;96804.91;5009933;28;104620;-64
2022/07/06 07:47:39;;;;;;;1.53;1.10;;;;;;;23.58;100.00;96811.41;5013566;28;102924;-64
2022/07/06 07:50:08;;;;;;;2.93;1.10;;;;;;;23.15;100.00;96807.13;5011153;28;102387;-64
2022/07/06 07:52:36;;;;;;;1.73;1.10;;;;;;;23.02;100.00;96808.88;5010436;28;102062;-64
2022/07/06 07:55:04;;;;;;;1.17;1.00;;;;;;;22.90;100.00;96811.44;5010870;28;101820;-64
2022/07/06 07:57:31;;;;;;;1.23;1.10;;;;;;;22.92;100.00;96803.78;5010999;28;102932;-64
2022/07/06 07:59:59;;;;;;;1.40;1.03;;;;;;;23.41;100.00;96805.22;5008778;28;106221;-64
2022/07/06 08:02:26;;;;;;;1.67;1.10;;;;;;;23.53;100.00;96808.88;5009539;28;101968;-64
2022/07/06 08:04:53;;;;;;;1.00;1.00;;;;;;;23.06;100.00;96809.03;5010746;28;102297;-64
2022/07/06 08:07:20;;;;;;;2.50;1.23;;;;;;;23.41;100.00;96813.34;5010268;28;102798;-64
2022/07/06 08:09:48;;;;;;;1.53;0.93;;;;;;;23.81;100.00;96801.94;5012821;28;101983;-64
2022/07/06 08:12:16;;;;;;;1.83;1.10;;;;;;;24.06;100.00;96809.25;5008144;28;105511;-64
2022/07/06 08:14:42;;;;;;;1.47;1.00;;;;;;;23.41;100.00;96816.06;5010772;28;101853;-64
2022/07/06 08:17:10;;;;;;;2.30;1.13;;;;;;;23.85;100.00;96811.03;5009318;28;104230;-64
2022/07/06 08:19:37;;;;;;;0.87;0.80;;;;;;;23.90;100.00;96808.16;5008457;28;103906;-64
2022/07/06 08:22:06;;;;;;;0.90;0.90;;;;;;;23.94;100.00;96803.69;5010560;28;101761;-64
2022/07/06 08:24:34;;;;;;;1.53;1.10;;;;;;;23.94;100.00;96802.88;5010399;28;103526;-64
2022/07/06 08:27:04;;;;;;;1.40;0.83;;;;;;;24.23;100.00;96811.06;5009976;28;103220;-64
2022/07/06 08:29:31;;;;;;;2.47;0.80;;;;;;;23.96;100.00;96808.78;5010378;28;101857;-64
2022/07/06 08:31:58;;;;;;;2.77;1.23;;;;;;;23.74;100.00;96804.34;5011900;28;103672;-64
2022/07/06 08:34:26;;;;;;;1.07;1.07;;;;;;;23.62;100.00;96806.13;5010405;28;102050;-64
2022/07/06 08:36:53;;;;;;;2.87;1.10;;;;;;;23.36;100.00;96818.94;5010258;28;101735;-64
2022/07/06 08:39:20;;;;;;;2.00;1.00;;;;;;;23.00;100.00;96815.75;5010030;28;102600;-64
2022/07/06 08:41:49;;;;;;;2.90;0.90;;;;;;;22.89;100.00;96830.75;5008859;28;102127;-65
2022/07/06 08:44:18;;;;;;;1.67;1.17;;;;;;;23.16;100.00;96819.59;5010099;28;101710;-64
2022/07/06 08:46:46;;;;;;;2.53;1.10;;;;;;;23.23;100.00;96819.94;5007382;28;105797;-64
2022/07/06 08:49:15;;;;;;;2.33;1.13;;;;;;;23.21;100.00;96820.22;5008925;28;101791;-64
2022/07/06 08:51:43;;;;;;;1.60;1.03;;;;;;;23.54;100.00;96825.97;5007359;28;105230;-64
2022/07/06 08:54:12;;;;;;;4.93;1.20;;;;;;;23.68;100.00;96826.56;5011503;28;102621;-64
2022/07/06 08:56:40;;;;;;;0.90;0.90;;;;;;;23.85;100.00;96821.91;5008366;28;102327;-64
2022/07/06 08:59:10;;;;;;;1.60;1.00;;;;;;;23.80;100.00;96834.84;5006339;28;106966;-64
2022/07/06 09:01:40;;;;;;;1.10;1.00;;;;;;;23.46;100.00;96829.47;5007378;28;102008;-64
2022/07/06 09:04:08;;;;;;;1.50;1.20;;;;;;;23.23;100.00;96836.22;5007192;28;105349;-64
2022/07/06 09:06:36;;;;;;;1.13;1.13;;;;;;;23.19;100.00;96827.91;5007895;28;102766;-64
2022/07/06 09:09:06;;;;;;;1.67;1.00;;;;;;;23.47;100.00;96836.50;5008690;28;102228;-64
2022/07/06 09:11:35;;;;;;;2.43;1.10;;;;;;;23.56;98.00;96842.72;5008420;28;102551;-64
2022/07/06 09:14:02;;;;;;;2.23;1.20;;;;;;;23.94;99.77;96827.34;5011242;28;102507;-64
2022/07/06 09:16:30;;;;;;;1.47;1.00;;;;;;;24.02;98.92;96831.94;4998783;28;105632;-64
2022/07/06 09:18:59;;;;;;;2.13;1.00;;;;;;;24.40;93.21;96830.81;5008180;28;102514;-64
2022/07/06 09:21:30;;;;;;;1.70;0.90;;;;;;;24.74;83.96;96833.38;5008349;28;101800;-64
2022/07/06 09:23:58;;;;;;;2.17;1.20;;;;;;;24.71;88.23;96828.63;5009302;28;102349;-64
2022/07/06 09:26:25;;;;;;;1.97;1.00;;;;;;;25.00;86.94;96823.13;5011162;28;102921;-64
2022/07/06 09:28:54;;;;;;;1.67;1.20;;;;;;;24.92;92.05;96828.63;5011956;28;101842;-64
2022/07/06 09:31:21;;;;;;;0.93;0.93;;;;;;;24.40;98.88;96821.84;5011787;28;102394;-64
2022/07/06 09:33:56;;;;;;;1.50;1.40;;;;;;;24.46;86.74;96820.56;5009800;28;105980;-64
2022/07/06 09:36:42;;;;;;;2.17;1.10;;;;;;;24.24;87.52;96823.56;5012622;28;102059;-64
2022/07/06 09:39:20;;;;;;;1.73;1.00;;;;;;;24.47;88.53;96824.88;5008152;28;104235;-64
2022/07/06 09:41:48;;;;;;;1.73;1.30;;;;;;;24.53;87.53;96826.28;5009706;28;101874;-64
2022/07/06 09:44:22;;;;;;;1.10;1.00;;;;;;;24.51;82.96;96817.63;5011654;28;102789;-64
2022/07/06 09:46:50;;;;;;;2.67;1.07;;;;;;;25.04;82.86;96820.53;5010933;28;103111;-64
2022/07/06 09:49:20;;;;;;;1.60;1.00;;;;;;;24.99;64.29;96823.44;5011399;28;102173;-64
2022/07/06 09:51:52;;;;;;;1.50;1.00;;;;;;;25.20;62.67;96835.94;5011707;28;101903;-64
2022/07/06 09:54:19;;;;;;;0.87;0.87;;;;;;;25.52;76.53;96831.69;5009445;28;103760;-64
2022/07/06 09:56:50;;;;;;;1.13;1.00;;;;;;;25.63;64.36;96827.41;5010603;28;102000;-64
2022/07/06 09:59:21;;;;;;;1.90;0.90;;;;;;;25.68;50.23;96833.47;5013930;28;105176;-64
2022/07/06 10:01:51;;;;;;;2.10;1.10;;;;;;;25.55;56.00;96831.03;5011081;28;102010;-64
2022/07/06 10:04:20;;;;;;;1.00;1.00;;;;;;;25.41;65.02;96827.78;4995115;28;105317;-64
2022/07/06 10:06:47;;;;;;;1.87;1.10;;;;;;;24.97;65.29;96820.28;5010739;28;105331;-64
2022/07/06 10:09:17;;;;;;;1.67;1.20;;;;;;;25.24;64.75;96819.75;5012921;28;101742;-64
2022/07/06 10:11:50;;;;;;;1.30;1.20;;;;;;;25.14;63.79;96825.59;5010940;28;105608;-64
2022/07/06 10:14:19;;;;;;;1.20;1.10;;;;;;;25.28;69.60;96824.22;5011688;28;102559;-64
2022/07/06 10:16:47;;;;;;;1.57;1.00;;;;;;;25.16;70.55;96828.75;5012296;28;101868;-64
2022/07/06 10:19:16;;;;;;;2.90;1.10;;;;;;;25.50;68.52;96817.63;5012456;28;102897;-64
2022/07/06 10:21:44;;;;;;;1.80;1.23;;;;;;;25.41;72.81;96823.16;5015268;28;102472;-65
2022/07/06 10:24:13;;;;;;;1.30;1.20;;;;;;;25.26;75.87;96821.03;5010768;28;106208;-64
2022/07/06 10:26:43;;;;;;;3.97;1.10;;;;;;;25.58;76.08;96814.81;5011754;28;102736;-64
2022/07/06 10:29:10;;;;;;;1.60;1.10;;;;;;;25.90;60.93;96829.53;5010966;28;102061;-64
2022/07/06 10:31:41;;;;;;;1.10;1.10;;;;;;;25.72;58.10;96826.19;5010805;28;104967;-65
2022/07/06 10:34:11;;;;;;;1.40;1.00;;;;;;;25.49;52.21;96830.44;5009664;28;105935;-64
2022/07/06 10:36:40;;;;;;;1.70;1.07;;;;;;;25.63;48.03;96824.69;5010402;28;101937;-63
2022/07/06 10:41:49;;;;;;;1.80;0.90;;;;;;;25.51;47.53;96824.66;5010900;28;103262;-64
2022/07/06 10:44:18;;;;;;;2.57;0.90;;;;;;;25.27;49.00;96819.09;5015158;28;102174;-64
2022/07/06 10:46:52;;;;;;;3.27;1.00;;;;;;;26.07;47.56;96822.00;5009838;28;105522;-64
2022/07/06 10:49:19;;;;;;;1.27;1.00;;;;;;;26.06;46.59;96816.88;5010626;28;101929;-64
2022/07/06 10:51:49;;;;;;;1.80;1.00;;;;;;;25.84;46.69;96822.72;5012076;28;102360;-64
2022/07/06 10:54:17;;;;;;;1.03;1.00;;;;;;;26.02;49.55;96818.69;5011180;28;102977;-64
2022/07/06 10:56:46;;;;;;;2.03;1.00;;;;;;;26.06;48.67;96812.25;5011470;28;101833;-64
2022/07/06 10:59:15;;;;;;;1.97;1.20;;;;;;;26.12;49.83;96808.16;5012183;28;101705;-64
2022/07/06 11:02:15;;;;;;;2.03;0.83;;;;;;;26.09;47.53;96811.56;5010826;28;102555;-64
2022/07/06 11:04:43;;;;;;;1.00;0.90;;;;;;;25.76;47.43;96809.97;5010324;28;101779;-64
2022/07/06 11:07:12;;;;;;;4.23;1.10;;;;;;;25.99;49.79;96809.25;5014608;28;102546;-64
2022/07/06 11:09:42;;;;;;;1.53;0.90;;;;;;;25.58;47.91;96814.00;5011545;28;101808;-63
2022/07/06 11:12:20;;;;;;;1.53;0.90;;;;;;;26.13;47.64;96815.19;5010015;28;104233;-64
2022/07/06 11:14:50;;;;;;;1.23;1.10;;;;;;;25.70;48.18;96827.66;5011172;28;102614;-63
2022/07/06 11:17:18;;;;;;;2.00;1.10;;;;;;;25.64;49.25;96823.56;5011544;28;102091;-63
2022/07/06 11:19:56;;;;;;;1.63;1.30;;;;;;;26.03;47.87;96817.56;5010102;28;104098;-63
2022/07/06 11:22:24;;;;;;;4.03;1.10;;;;;;;25.92;52.37;96813.66;5009400;28;106699;-63
2022/07/06 11:24:52;;;;;;;3.03;1.20;;;;;;;26.58;50.83;96805.00;5010181;28;101995;-63
2022/07/06 11:27:20;;;;;;;1.70;1.10;;;;;;;26.46;46.09;96817.81;5012831;28;105639;-63
2022/07/06 11:29:49;;;;;;;0.97;0.97;;;;;;;27.06;43.24;96806.84;5011513;28;101819;-64
2022/07/06 11:32:24;;;;;;;1.10;1.00;;;;;;;26.88;45.94;96803.63;5011453;28;102849;-63
2022/07/06 11:34:51;;;;;;;1.53;1.20;;;;;;;26.55;46.66;96810.34;5010845;28;102666;-63
2022/07/06 11:37:20;;;;;;;1.27;1.17;;;;;;;25.77;45.67;96811.59;5011309;28;103779;-63